ORLEN WARSAW MARATHON - WYNIKI NIEOFICJALNE
42.195 km
Lista
startowa
5 km 10 km 15 km 20 km 21.097 km 25 km 30 km 35 km 40 km meta DNF
OSHEE 10 km
Lista
startowa
5 km meta DNF
wózki
Lista
startowa
5 km meta DNF
Szukaj wg nazwiska i imienia lub numeru startowego

OPEN KOBIETY K18 K30 K40 K50 K60 K70
MĘŻCZY¬NI M18 M30 M40 M50 M60 M70
42.195 km (09:00:00) - 25 km
Strona < 1 2 3 4  5  6 7 . . . . . . . . . . . . . . . . . . . . . . . . . . . . . . . . . . . . . . . 47 48 >
Miej.
open
Nr Start Nazwisko i Imię™ Klub/Miasto/Kraj Dod. K M Kat./
miej.
Czas
brutto
Strata Czas
netto
Czas
rzeczywisty
401 2742 FULBROOK Simon Wielka Brytania (GBR) 382 M40 (116) 01:47:21 +31:02 01:47:01 10:47:21.01
402 2413 MICHALIK Tomasz Wrocław (POL) 383 M40 (120) 01:47:24 +31:05 01:47:16 10:47:24.89
403 3246 DZEHTSIAROV Vasili Victoria (POL) 384 M30 (173) 01:47:24 +31:05 01:47:10 10:47:24.99
404 2749 RYGIEL Krzysztof Wrocław (POL) 385 M40 (119) 01:47:26 +31:07 01:47:15 10:47:26.88
405 5494 ORLIŃSKI TOMASZ BHP ORLINSCY (POL) 386 M40 (118) 01:47:26 +31:07 01:47:11 10:47:26.97
406 5782 GRYGIEL Mateusz Ruda ¶l±ska (POL) 387 M18 (68) 01:47:27 +31:08 01:47:24 10:47:27.66
407 4755 NOGA Jarek Pszczółkowski Team (POL) 388 M30 (174) 01:47:29 +31:10 01:47:11 10:47:29.12
408 1045 JUSIŃSKI Krystian Bractwo Biegowe BGK (POL) 389 M30 (175) 01:47:29 +31:10 01:47:11 10:47:29.81
409 2523 MAZURKIEWICZ MARCIN KB Gepard Mur-Go¶lina (POL) 390 M40 (121) 01:47:30 +31:11 01:47:20 10:47:30.06
410 2158 MIERZYŃSKI Szymon KolecTEAM Zb±szynek (POL) 391 M40 (123) 01:47:30 +31:11 01:47:24 10:47:30.22
411 45 KACZANOWSKI Krystian WKB META LUBLINIEC (POL) PZLA 392 M30 (181) 01:47:33 +31:14 01:47:26 10:47:33.18
412 5278 BOROWCZAK Filip NR Wrzesnia/Biznes UP (POL) 393 M18 (67) 01:47:33 +31:14 01:47:11 10:47:33.57
413 6493 GODLEWSKI Mariusz Klub Biegacza Provident (POL) 394 M30 (177) 01:47:33 +31:14 01:47:15 10:47:33.79
414 1378 NIEMIEC Bartłomiej Gdańsk (POL) 395 M30 (178) 01:47:34 +31:15 01:47:19 10:47:34.29
415 2561 LEWDOROWICZ Wojciech Sam Sobie Klubem (POL) 396 M40 (122) 01:47:35 +31:16 01:47:21 10:47:35.15
416 2902 POŁAWSKI Arkadiusz Probis Team (POL) 397 M40 (117) 01:47:36 +31:17 01:47:06 10:47:36.51
417 3174 BLICHARZ Paweł Radzyń Podlaski (POL) 398 M30 (179) 01:47:36 +31:17 01:47:20 10:47:36.88
418 2770 SIERADZKI Krzysztof wkurw_team (POL) 399 M30 (182) 01:47:38 +31:19 01:47:26 10:47:38.25
419 6178 GAWARSKI Piotr LKS Olymp Błonie (POL) 400 M30 (183) 01:47:43 +31:24 01:47:31 10:47:43.80
420 1114 DENEKA Andrzej Baniocha Run (POL) 401 M40 (125) 01:47:43 +31:24 01:47:38 10:47:43.91
421 1753 PIRES Paulo SS CGD (POR) 402 M50 (27) 01:47:45 +31:26 01:47:40 10:47:45.15
422 6013 KRECZMAŃSKI Robert Dream Run (POL) 403 M50 (26) 01:47:49 +31:30 01:47:35 10:47:49.58
423 3420 BIANCO EMILIO le tartarughe asd (POL) 404 M40 (126) 01:47:49 +31:30 01:47:42 10:47:49.93
424 3535 JIRGENSONS RAITIS CESIS (LAT) 405 M30 (185) 01:48:00 +31:41 01:47:45 10:48:00.95
425 5103 KOWALCZYK MARCIN RADZYŃ PODLASKI (POL) 406 M30 (184) 01:48:01 +31:42 01:47:44 10:48:01.21
426 1110 AUGUSTYNIAK Łukasz Biegaj±cy ¦widnik (POL) 407 M18 (69) 01:48:01 +31:42 01:47:50 10:48:01.95
427 3787 WO¬NIAK Michał Czapury (POL) 408 M40 (124) 01:48:02 +31:43 01:47:26 10:48:02.65
428 3431 KOSIOREK Adam BSAC Mokobody (POL) 409 M40 (127) 01:48:03 +31:44 01:47:43 10:48:03.80
429 5330 AKSIUCIK Arkadiusz IGT Running Team (POL) 410 M30 (186) 01:48:05 +31:46 01:47:49 10:48:05.26
430 6371 SKOWRON Andrzej Amaratończycy (POL) 411 M40 (128) 01:48:05 +31:46 01:47:58 10:48:05.28
431 3760 HACZYK Jarosław MUAY RUNNING TEAM (POL) 412 M50 (29) 01:48:10 +31:51 01:47:55 10:48:10.56
432 5827 BATORYNA aleksander Uniwersytet Ekonomiczny w Katowicach (POL) 413 M30 (180) 01:48:11 +31:52 01:47:23 10:48:11.47
433 5604 WINIARSKI Adam 1966 (POL) 414 M50 (28) 01:48:12 +31:53 01:47:55 10:48:12.16
434 1194 ROJEWSKI Maciej CS Group Runners Team (POL) 415 M30 (176) 01:48:15 +31:56 01:47:14 10:48:15.54
435 3893 WRZESIŃSKI Andrzej STS Biegaton Mikołów KIA ETRANS (POL) 416 M50 (30) 01:48:17 +31:58 01:48:10 10:48:17.51
436 3314 BOJANOWICZ Dariusz Studzienice (POL) 417 M40 (132) 01:48:23 +32:04 01:48:18 10:48:23.59
437 2515 SAWICKA Anna Dream Run (POL) 20 K30 (9) 01:48:25 +32:06 01:48:09 10:48:25.21
438 3625 SZANIAWSKI Grzegorz Biała Podlaska (POL) 418 M30 (188) 01:48:26 +32:07 01:48:02 10:48:26.64
439 3568 ŁOZIŃSKI Wojciech Ultra Speed Kwezal (POL) 419 M40 (131) 01:48:26 +32:07 01:48:16 10:48:26.79
440 5077 JACHYMEK Bartłomiej JacekBiega Running Team (POL) 420 M40 (130) 01:48:27 +32:08 01:48:14 10:48:27.35
441 2040 JĘDRUSIAK Przemysław Dankowice (POL) 421 M30 (189) 01:48:28 +32:09 01:48:20 10:48:28.21
442 1305 BRZEZIŃSKI Andrzej Rykowisko (POL) 422 M40 (134) 01:48:29 +32:10 01:48:21 10:48:29.85
443 3336 GIEMZA Michał #SOBASTEAM (POL) 423 M30 (187) 01:48:32 +32:13 01:47:58 10:48:32.39
444 5088 ŻAK Robert Wieliszew Heron Team (POL) 424 M40 (129) 01:48:35 +32:16 01:48:03 10:48:35.79
445 3703 MˇKOWSKI TOMASZ Ciechanów (POL) 425 M30 (191) 01:48:36 +32:17 01:48:30 10:48:36.40
446 5404 PYSZ Grzegorz Hr Max Żory (POL) 426 M40 (133) 01:48:37 +32:18 01:48:21 10:48:37.72
447 6728 SAKIEWICZ Ignacy (POL) 427 M18 (70) 01:48:38 +32:19 01:47:51 10:48:38.29
448 6027 MICHLEWICZ Krzysztof Warszawa (POL) 428 M30 (190) 01:48:41 +32:22 01:48:22 10:48:41.42
449 1552 KORBELA Bartosz mBank (POL) 429 M30 (194) 01:48:44 +32:25 01:48:37 10:48:44.97
450 2248 ROKITA Piotr Rzeszów (POL) 430 M40 (136) 01:48:49 +32:30 01:48:39 10:48:49.87
451 6314 MODELSKI Adam Unilogo Running Team (POL) 431 M40 (135) 01:48:50 +32:31 01:48:23 10:48:50.99
452 3868 SPRENGEL Piotr Legia Run Club (POL) 432 M30 (195) 01:48:52 +32:33 01:48:39 10:48:52.96
453 2320 NALAZEK Marcin Kalenji by Decathlon (POL) 433 M30 (193) 01:49:00 +32:41 01:48:37 10:49:00.77
454 5789 MARUCHA Tomasz Drużyna Ż (POL) 434 M30 (196) 01:49:03 +32:44 01:48:42 10:49:03.45
455 4048 LASOTA Grzegorz Ultra Team Radom (POL) 435 M40 (139) 01:49:03 +32:44 01:48:53 10:49:03.98
456 5198 KAMIŃSKI Łukasz Parkrun Szczecin (POL) 436 M30 (197) 01:49:04 +32:45 01:48:44 10:49:04.31
457 2400 LIMA Carlos A Natureza Ensina (POR) 437 M40 (141) 01:49:04 +32:45 01:49:00 10:49:04.44
458 5341 POTAPOV Anton Kaliningrad (POL) 438 M18 (76) 01:49:05 +32:46 01:49:01 10:49:05.01
459 4305 ŻYSZKO Michał vege runners (POL) 439 M18 (74) 01:49:07 +32:48 01:48:56 10:49:07.46
460 4690 JAGIEŁKA Mateusz Mateusz Jagielka (POL) 440 M18 (75) 01:49:07 +32:48 01:48:58 10:49:07.98
461 6609 NISSLON Maryk Night Runner Gliwice (POL) 441 M30 (198) 01:49:08 +32:49 01:48:51 10:49:08.88
462 4738 RYGIELSKI Arkadiusz Klub Biegacza SPOKO Sławno (POL) 442 M30 (200) 01:49:09 +32:50 01:48:58 10:49:09.72
463 2251 RÓŻYCKI Marcin Tychy (POL) 443 M40 (142) 01:49:10 +32:51 01:49:02 10:49:10.23
464 2514 WAWRZYNIUK Mariusz Algraf Race Team (POL) 444 M40 (140) 01:49:10 +32:51 01:48:59 10:49:10.81
465 4590 KANIA Tomasz #SOBASTEAM (POL) 445 M40 (137) 01:49:15 +32:56 01:48:42 10:49:15.14
466 5335 NOWOSIELSKI Marek Biegam dla Marcinka (POL) 446 M60 (5) 01:49:17 +32:58 01:49:12 10:49:17.49
467 1826 KUBIK Grzegorz Warsaw (POL) 447 M30 (199) 01:49:19 +33:00 01:48:57 10:49:19.94
468 2000 WALENCIK Marcin Radom (POL) 448 M30 (201) 01:49:21 +33:02 01:49:06 10:49:21.25
469 4498 SKRĘTKOWSKI Krzysztof ARKADIUSZ GARDZIELEWSKI RUNNING TEAM (POL) 449 M30 (202) 01:49:25 +33:06 01:49:16 10:49:25.36
470 1577 ZIĘTERSKI ROBERT EBIEGI.PL (POL) 450 M40 (138) 01:49:26 +33:07 01:48:44 10:49:26.16
471 2335 PARASHCHANKA Kiryl Gomel (BLR) 451 M18 (71) 01:49:26 +33:07 01:48:37 10:49:26.29
472 58 MICHALIK Rafał CKS Budowlani Częstochowa (POL) PZLA 452 M18 (61) 01:49:28 +33:09 01:46:17 10:49:28.36
473 5776 ZAWADA Paweł Biegnijzwierzu.pl (POL) 453 M18 (78) 01:49:29 +33:10 01:49:24 10:49:29.69
474 3389 VALODCHANKA Mikalai Victoria (BLR) 454 M50 (31) 01:49:34 +33:15 01:49:30 10:49:34.52
475 5615 ZARITSKY Sergey Let's Run (BLR) 455 M40 (144) 01:49:41 +33:22 01:49:37 10:49:41.48
476 2196 NIWIŃSKA Aleksandra LKS OLYMP Błonie (POL) 21 K30 (10) 01:49:46 +33:27 01:49:36 10:49:46.73
477 5474 GREGROWSKI Krzysztof Podgórz Toruń (POL) 456 M30 (192) 01:49:47 +33:28 01:48:35 10:49:47.42
478 2008 JANIEC Mateusz TriWawa (POL) 457 M30 (204) 01:49:50 +33:31 01:49:34 10:49:50.68
479 4400 ODOWSKI Michał Warszawa (POL) 458 M18 (79) 01:49:56 +33:37 01:49:50 10:49:56.43
480 2073 KRYSTOSIAK Arkadiusz Warszawa (POL) 459 M30 (205) 01:49:56 +33:37 01:49:43 10:49:56.92
481 2072 MACHTELEWSKI Artur TS REGLE Szklarska Poręba (POL) 460 M40 (145) 01:49:57 +33:38 01:49:43 10:49:57.01
482 2598 DˇBROWSKI Łukasz Biłgoraj Biega (POL) 461 M18 (77) 01:49:57 +33:38 01:49:03 10:49:57.78
483 3401 TABAKA Tomasz Inżynieria Biegania (POL) 462 M40 (146) 01:50:03 +33:44 01:49:43 10:50:03.79
484 3351 ROŻNOWSKI Dariusz Warszawa (POL) 463 M40 (151) 01:50:14 +33:55 01:50:10 10:50:14.16
485 338 CICHECKI Jacek Nowe Trzepowo (POL) 464 M50 (32) 01:50:14 +33:55 01:49:55 10:50:14.21
486 1538 TRZASKOWSKI Dariusz Trucht Tarchomin Team (POL) 465 M40 (143) 01:50:15 +33:56 01:49:09 10:50:15.04
487 4390 BULGAKOV Viktor Kaliningrad (RUS) 466 M50 (33) 01:50:15 +33:56 01:49:58 10:50:15.53
488 3927 SZMERKA Mariusz Orange Polska (POL) 467 M40 (149) 01:50:16 +33:57 01:50:02 10:50:16.86
489 3865 FATAH Abdennour London (GBR) 468 M40 (147) 01:50:17 +33:58 01:49:57 10:50:17.93
490 2869 ORZECHOWSKI Damian Biegnę. żeby Bartek mógł biegać. (POL) 469 M30 (206) 01:50:26 +34:07 01:50:06 10:50:26.46
491 5026 FRˇCZEK Maciej Piaseczno (POL) 470 M40 (152) 01:50:27 +34:08 01:50:15 10:50:27.27
492 4561 ETTINGER Paweł BYDGOSZCZ (POL) 471 M30 (207) 01:50:27 +34:08 01:50:06 10:50:27.70
493 5701 JASIŃSKI Kamil Biegne zeby Bartek mógł biegać (POL) 472 M40 (150) 01:50:27 +34:08 01:50:06 10:50:27.77
494 6519 FICNER Anna Komenda Główna Policji (POL) P 22 K30 (11) 01:50:27 +34:08 01:50:17 10:50:27.83
495 3712 RUSZNIAK Piotr Dla Rodziny (POL) 473 M40 (153) 01:50:28 +34:09 01:50:15 10:50:28.44
496 3579 ZALEWSKI Michał ŁódĽ (POL) 474 M40 (148) 01:50:29 +34:10 01:49:59 10:50:29.66
497 2937 BENDAFI Nabil Stormshield (POL) 475 M30 (210) 01:50:29 +34:10 01:50:22 10:50:29.69
498 2346 MYSZKIEWICZ Maciej DˇBROWSKI TEAM (POL) 476 M18 (81) 01:50:29 +34:10 01:50:20 10:50:29.88
499 3036 ZAWADA Dawid Katowice (POL) 477 M30 (209) 01:50:34 +34:15 01:50:18 10:50:34.17
500 3203 WACHOWSKI Łukasz Warszawa (POL) 478 M30 (203) 01:50:38 +34:19 01:49:27 10:50:38.29
DomTel-Sport ©by Pilar 2007-2019 Generowanie
0.71984410 s

Sponsor główny: